sensor_id;sensor_type;location;lat;lon;timestamp;pressure;altitude;pressure_sealevel;temperature;humidity
24892;BME280;12954;50.688;10.908;2022-07-29T00:01:43;95731.13;;;16.65;35.82
24892;BME280;12954;50.688;10.908;2022-07-29T00:04:12;95731.75;;;16.62;36.14
24892;BME280;12954;50.688;10.908;2022-07-29T00:06:41;95620.91;;;15.93;36.54
24892;BME280;12954;50.688;10.908;2022-07-29T00:09:09;95729.34;;;16.61;36.27
24892;BME280;12954;50.688;10.908;2022-07-29T00:11:38;95726.94;;;16.59;36.33
24892;BME280;12954;50.688;10.908;2022-07-29T00:14:07;95717.97;;;16.59;36.49
24892;BME280;12954;50.688;10.908;2022-07-29T00:16:37;95717.66;;;16.60;36.37
24892;BME280;12954;50.688;10.908;2022-07-29T00:19:06;95717.31;;;16.62;36.32
24892;BME280;12954;50.688;10.908;2022-07-29T00:21:36;95728.56;;;16.60;36.02
24892;BME280;12954;50.688;10.908;2022-07-29T00:24:05;95712.50;;;16.59;36.04
24892;BME280;12954;50.688;10.908;2022-07-29T00:26:34;95706.59;;;16.57;36.16
24892;BME280;12954;50.688;10.908;2022-07-29T00:29:04;95708.78;;;16.55;35.90
24892;BME280;12954;50.688;10.908;2022-07-29T00:31:54;95661.84;;;16.19;36.02
24892;BME280;12954;50.688;10.908;2022-07-29T00:34:23;95703.00;;;16.48;36.24
24892;BME280;12954;50.688;10.908;2022-07-29T00:37:09;95709.88;;;16.37;36.38
24892;BME280;12954;50.688;10.908;2022-07-29T00:39:37;95712.91;;;16.44;36.58
24892;BME280;12954;50.688;10.908;2022-07-29T00:42:06;95714.06;;;16.43;36.72
24892;BME280;12954;50.688;10.908;2022-07-29T00:44:38;95714.34;;;16.41;36.64
24892;BME280;12954;50.688;10.908;2022-07-29T00:47:10;95722.53;;;16.41;36.44
24892;BME280;12954;50.688;10.908;2022-07-29T00:49:40;95715.97;;;16.42;36.37
24892;BME280;12954;50.688;10.908;2022-07-29T00:52:10;95710.53;;;16.42;36.74
24892;BME280;12954;50.688;10.908;2022-07-29T00:54:42;95708.91;;;16.41;36.67
24892;BME280;12954;50.688;10.908;2022-07-29T00:57:12;95711.59;;;16.33;37.01
24892;BME280;12954;50.688;10.908;2022-07-29T00:59:40;95716.38;;;16.27;36.69
24892;BME280;12954;50.688;10.908;2022-07-29T01:02:10;95702.53;;;16.24;36.90
24892;BME280;12954;50.688;10.908;2022-07-29T01:04:40;95684.91;;;16.21;36.48
24892;BME280;12954;50.688;10.908;2022-07-29T01:07:09;95680.59;;;16.20;36.42
24892;BME280;12954;50.688;10.908;2022-07-29T01:09:38;95678.66;;;16.21;36.57
24892;BME280;12954;50.688;10.908;2022-07-29T01:12:13;95681.22;;;16.17;36.99
24892;BME280;12954;50.688;10.908;2022-07-29T01:14:44;95678.81;;;16.16;37.04
24892;BME280;12954;50.688;10.908;2022-07-29T01:17:18;95653.91;;;16.00;37.06
24892;BME280;12954;50.688;10.908;2022-07-29T01:19:56;95666.00;;;16.16;37.10
24892;BME280;12954;50.688;10.908;2022-07-29T01:22:35;95667.13;;;16.15;37.35
24892;BME280;12954;50.688;10.908;2022-07-29T01:25:19;95651.81;;;15.97;37.76
24892;BME280;12954;50.688;10.908;2022-07-29T01:28:09;95670.09;;;16.05;37.96
24892;BME280;12954;50.688;10.908;2022-07-29T01:30:51;95666.41;;;16.01;37.90
24892;BME280;12954;50.688;10.908;2022-07-29T01:33:24;95666.22;;;15.97;38.04
24892;BME280;12954;50.688;10.908;2022-07-29T01:36:13;95656.28;;;15.93;38.19
24892;BME280;12954;50.688;10.908;2022-07-29T01:38:45;95644.91;;;15.91;38.36
24892;BME280;12954;50.688;10.908;2022-07-29T01:41:19;95651.75;;;15.88;38.35
24892;BME280;12954;50.688;10.908;2022-07-29T01:43:53;95643.94;;;15.87;38.30
24892;BME280;12954;50.688;10.908;2022-07-29T01:46:28;95640.69;;;15.85;38.28
24892;BME280;12954;50.688;10.908;2022-07-29T01:49:07;95642.31;;;15.86;38.20
24892;BME280;12954;50.688;10.908;2022-07-29T01:51:43;95655.09;;;15.85;38.41
24892;BME280;12954;50.688;10.908;2022-07-29T01:54:18;95561.19;;;15.35;38.53
24892;BME280;12954;50.688;10.908;2022-07-29T01:56:51;95640.69;;;15.85;38.52
24892;BME280;12954;50.688;10.908;2022-07-29T01:59:21;95642.13;;;15.82;38.51
24892;BME280;12954;50.688;10.908;2022-07-29T02:01:57;95641.66;;;15.80;38.52
24892;BME280;12954;50.688;10.908;2022-07-29T02:04:27;95649.28;;;15.70;38.42
24892;BME280;12954;50.688;10.908;2022-07-29T02:07:00;95638.75;;;15.77;38.52
24892;BME280;12954;50.688;10.908;2022-07-29T02:09:30;95616.25;;;15.63;38.47
24892;BME280;12954;50.688;10.908;2022-07-29T02:12:00;95640.97;;;15.75;38.48
24892;BME280;12954;50.688;10.908;2022-07-29T02:14:33;95632.31;;;15.73;38.51
24892;BME280;12954;50.688;10.908;2022-07-29T02:17:04;95642.56;;;15.76;38.74
24892;BME280;12954;50.688;10.908;2022-07-29T02:19:33;95631.53;;;15.72;38.84
24892;BME280;12954;50.688;10.908;2022-07-29T02:22:02;95628.75;;;15.64;38.93
24892;BME280;12954;50.688;10.908;2022-07-29T02:24:34;95620.59;;;15.64;38.89
24892;BME280;12954;50.688;10.908;2022-07-29T02:27:04;95614.91;;;15.51;38.96
24892;BME280;12954;50.688;10.908;2022-07-29T02:29:33;95637.75;;;15.73;38.97
24892;BME280;12954;50.688;10.908;2022-07-29T02:32:05;95627.66;;;15.73;38.92
24892;BME280;12954;50.688;10.908;2022-07-29T02:34:38;95620.66;;;15.72;39.07
24892;BME280;12954;50.688;10.908;2022-07-29T02:37:09;95618.84;;;15.68;38.93
24892;BME280;12954;50.688;10.908;2022-07-29T02:39:39;95625.56;;;15.70;39.23
24892;BME280;12954;50.688;10.908;2022-07-29T02:42:12;95624.78;;;15.70;39.29
24892;BME280;12954;50.688;10.908;2022-07-29T02:44:42;95623.19;;;15.69;39.17
24892;BME280;12954;50.688;10.908;2022-07-29T02:47:16;95622.38;;;15.68;39.11
24892;BME280;12954;50.688;10.908;2022-07-29T02:49:53;95623.66;;;15.71;39.55
24892;BME280;12954;50.688;10.908;2022-07-29T02:52:26;95630.22;;;15.70;39.69
24892;BME280;12954;50.688;10.908;2022-07-29T02:55:02;95631.34;;;15.69;39.91
24892;BME280;12954;50.688;10.908;2022-07-29T02:57:41;95625.91;;;15.69;40.04
24892;BME280;12954;50.688;10.908;2022-07-29T03:00:21;95622.69;;;15.67;39.89
24892;BME280;12954;50.688;10.908;2022-07-29T03:02:55;95623.19;;;15.69;39.83
24892;BME280;12954;50.688;10.908;2022-07-29T03:05:25;95595.25;;;15.54;39.80
24892;BME280;12954;50.688;10.908;2022-07-29T03:07:57;95620.13;;;15.70;39.79
24892;BME280;12954;50.688;10.908;2022-07-29T03:10:27;95622.06;;;15.70;39.97
24892;BME280;12954;50.688;10.908;2022-07-29T03:12:57;95624.28;;;15.68;40.00
24892;BME280;12954;50.688;10.908;2022-07-29T03:15:26;95598.22;;;15.44;40.33
24892;BME280;12954;50.688;10.908;2022-07-29T03:17:58;95605.00;;;15.55;40.44
24892;BME280;12954;50.688;10.908;2022-07-29T03:20:26;95625.91;;;15.69;40.44
24892;BME280;12954;50.688;10.908;2022-07-29T03:22:55;95621.25;;;15.69;40.70
24892;BME280;12954;50.688;10.908;2022-07-29T03:25:24;95601.19;;;15.56;40.48
24892;BME280;12954;50.688;10.908;2022-07-29T03:27:54;95621.25;;;15.69;40.64
24892;BME280;12954;50.688;10.908;2022-07-29T03:30:23;95625.91;;;15.69;40.54
24892;BME280;12954;50.688;10.908;2022-07-29T03:32:53;95629.72;;;15.68;40.29
24892;BME280;12954;50.688;10.908;2022-07-29T03:35:26;95622.69;;;15.67;40.25
24892;BME280;12954;50.688;10.908;2022-07-29T03:37:54;95618.03;;;15.67;40.20
24892;BME280;12954;50.688;10.908;2022-07-29T03:40:26;95614.53;;;15.67;40.02
24892;BME280;12954;50.688;10.908;2022-07-29T03:42:56;95578.72;;;15.42;39.96
24892;BME280;12954;50.688;10.908;2022-07-29T03:45:26;95613.72;;;15.66;40.13
24892;BME280;12954;50.688;10.908;2022-07-29T03:48:00;95589.50;;;15.56;40.13
24892;BME280;12954;50.688;10.908;2022-07-29T03:50:33;95610.34;;;15.61;40.35
24892;BME280;12954;50.688;10.908;2022-07-29T03:53:02;95613.22;;;15.64;40.58
24892;BME280;12954;50.688;10.908;2022-07-29T03:55:37;95592.69;;;15.36;40.72
24892;BME280;12954;50.688;10.908;2022-07-29T03:58:10;95606.00;;;15.60;40.81
24892;BME280;12954;50.688;10.908;2022-07-29T04:00:41;95609.00;;;15.58;40.89
24892;BME280;12954;50.688;10.908;2022-07-29T04:03:11;95560.94;;;15.23;40.63
24892;BME280;12954;50.688;10.908;2022-07-29T04:05:43;95589.59;;;15.42;40.65
24892;BME280;12954;50.688;10.908;2022-07-29T04:08:11;95617.00;;;15.54;40.67
24892;BME280;12954;50.688;10.908;2022-07-29T04:10:40;95617.00;;;15.54;40.68
24892;BME280;12954;50.688;10.908;2022-07-29T04:13:08;95615.88;;;15.55;40.65
24892;BME280;12954;50.688;10.908;2022-07-29T04:15:37;95615.88;;;15.55;40.65
24892;BME280;12954;50.688;10.908;2022-07-29T04:18:05;95615.41;;;15.53;40.74
24892;BME280;12954;50.688;10.908;2022-07-29T04:20:34;95605.63;;;15.52;41.15
24892;BME280;12954;50.688;10.908;2022-07-29T04:23:04;95611.69;;;15.49;41.32
24892;BME280;12954;50.688;10.908;2022-07-29T04:25:33;95610.09;;;15.48;41.34
24892;BME280;12954;50.688;10.908;2022-07-29T04:28:01;95609.59;;;15.46;41.49
24892;BME280;12954;50.688;10.908;2022-07-29T04:30:31;95615.03;;;15.46;41.72
24892;BME280;12954;50.688;10.908;2022-07-29T04:33:01;95616.16;;;15.45;41.83
24892;BME280;12954;50.688;10.908;2022-07-29T04:35:32;95609.59;;;15.46;41.93
24892;BME280;12954;50.688;10.908;2022-07-29T04:38:05;95618.97;;;15.40;42.22
24892;BME280;12954;50.688;10.908;2022-07-29T04:40:42;95617.75;;;15.46;41.74
24892;BME280;12954;50.688;10.908;2022-07-29T04:43:12;95621.94;;;15.52;41.86
24892;BME280;12954;50.688;10.908;2022-07-29T04:45:41;95621.31;;;15.55;41.94
24892;BME280;12954;50.688;10.908;2022-07-29T04:48:10;95629.19;;;15.57;41.99
24892;BME280;12954;50.688;10.908;2022-07-29T04:50:39;95618.31;;;15.57;41.95
24892;BME280;12954;50.688;10.908;2022-07-29T04:53:10;95618.59;;;15.55;41.89
24892;BME280;12954;50.688;10.908;2022-07-29T04:55:39;95623.56;;;15.53;42.10
24892;BME280;12954;50.688;10.908;2022-07-29T04:58:07;95621.94;;;15.52;42.19
24892;BME280;12954;50.688;10.908;2022-07-29T05:00:36;95616.03;;;15.50;42.18
24892;BME280;12954;50.688;10.908;2022-07-29T05:03:04;95624.78;;;15.47;42.25
24892;BME280;12954;50.688;10.908;2022-07-29T05:05:33;95601.28;;;15.29;42.17
24892;BME280;12954;50.688;10.908;2022-07-29T05:08:03;95623.19;;;15.46;42.19
24892;BME280;12954;50.688;10.908;2022-07-29T05:10:33;95613.53;;;15.40;42.40
24892;BME280;12954;50.688;10.908;2022-07-29T05:13:05;95613.16;;;15.33;42.77
24892;BME280;12954;50.688;10.908;2022-07-29T05:15:34;95618.09;;;15.31;42.85
24892;BME280;12954;50.688;10.908;2022-07-29T05:18:04;95614.06;;;15.29;42.75
24892;BME280;12954;50.688;10.908;2022-07-29T05:20:32;95621.94;;;15.30;42.78
24892;BME280;12954;50.688;10.908;2022-07-29T05:23:01;95620.81;;;15.31;42.80
24892;BME280;12954;50.688;10.908;2022-07-29T05:25:30;95621.13;;;15.30;42.91
24892;BME280;12954;50.688;10.908;2022-07-29T05:28:11;95618.59;;;15.33;43.08
24892;BME280;12954;50.688;10.908;2022-07-29T05:30:40;95620.59;;;15.41;42.97
24892;BME280;12954;50.688;10.908;2022-07-29T05:33:09;95617.06;;;15.41;43.04
24892;BME280;12954;50.688;10.908;2022-07-29T05:35:58;95619.97;;;15.44;42.96
24892;BME280;12954;50.688;10.908;2022-07-29T05:38:27;95620.97;;;15.48;42.83
24892;BME280;12954;50.688;10.908;2022-07-29T05:40:57;95621.94;;;15.52;42.79
24892;BME280;12954;50.688;10.908;2022-07-29T05:43:27;95615.88;;;15.55;42.63
24892;BME280;12954;50.688;10.908;2022-07-29T05:45:56;95613.84;;;15.61;42.37
24892;BME280;12954;50.688;10.908;2022-07-29T05:48:25;95626.50;;;15.66;42.15
24892;BME280;12954;50.688;10.908;2022-07-29T05:50:54;95617.75;;;15.69;41.83
24892;BME280;12954;50.688;10.908;2022-07-29T05:53:23;95587.72;;;15.51;41.75
24892;BME280;12954;50.688;10.908;2022-07-29T05:55:52;95631.06;;;15.79;41.80
24892;BME280;12954;50.688;10.908;2022-07-29T05:58:20;95621.97;;;15.83;41.75
24892;BME280;12954;50.688;10.908;2022-07-29T06:00:50;95630.47;;;15.90;41.49
24892;BME280;12954;50.688;10.908;2022-07-29T06:03:19;95638.22;;;15.97;41.35
24892;BME280;12954;50.688;10.908;2022-07-29T06:05:48;95629.94;;;16.02;41.52
24892;BME280;12954;50.688;10.908;2022-07-29T06:08:17;95634.09;;;16.08;41.56
24892;BME280;12954;50.688;10.908;2022-07-29T06:10:45;95637.31;;;16.10;41.27
24892;BME280;12954;50.688;10.908;2022-07-29T06:13:14;95639.28;;;16.18;41.17
24892;BME280;12954;50.688;10.908;2022-07-29T06:15:43;95637.03;;;16.20;41.29
24892;BME280;12954;50.688;10.908;2022-07-29T06:18:13;95612.50;;;16.11;41.01
24892;BME280;12954;50.688;10.908;2022-07-29T06:20:42;95636.31;;;16.28;40.94
24892;BME280;12954;50.688;10.908;2022-07-29T06:23:10;95632.34;;;16.34;40.97
24892;BME280;12954;50.688;10.908;2022-07-29T06:25:40;95634.56;;;16.32;40.89
24892;BME280;12954;50.688;10.908;2022-07-29T06:28:08;95631.41;;;16.47;40.70
24892;BME280;12954;50.688;10.908;2022-07-29T06:30:37;95624.06;;;16.56;40.60
24892;BME280;12954;50.688;10.908;2022-07-29T06:33:06;95598.38;;;16.40;40.52
24892;BME280;12954;50.688;10.908;2022-07-29T06:35:36;95615.91;;;16.56;40.51
24892;BME280;12954;50.688;10.908;2022-07-29T06:38:08;95562.97;;;16.40;40.31
24892;BME280;12954;50.688;10.908;2022-07-29T06:40:58;95544.06;;;16.35;40.06
24892;BME280;12954;50.688;10.908;2022-07-29T06:43:33;95611.13;;;16.88;39.68
24892;BME280;12954;50.688;10.908;2022-07-29T06:46:19;95593.38;;;16.99;39.68
24892;BME280;12954;50.688;10.908;2022-07-29T06:48:48;95631.56;;;17.33;39.72
24892;BME280;12954;50.688;10.908;2022-07-29T06:51:19;95635.72;;;17.48;39.02
24892;BME280;12954;50.688;10.908;2022-07-29T06:53:50;95633.16;;;17.51;38.81
24892;BME280;12954;50.688;10.908;2022-07-29T06:56:29;95577.19;;;17.28;38.61
24892;BME280;12954;50.688;10.908;2022-07-29T06:59:06;95632.16;;;17.64;38.47
24892;BME280;12954;50.688;10.908;2022-07-29T07:01:35;95627.03;;;17.71;38.47
24892;BME280;12954;50.688;10.908;2022-07-29T07:04:05;95628.94;;;17.79;38.81
24892;BME280;12954;50.688;10.908;2022-07-29T07:06:37;95616.13;;;17.71;38.43
24892;BME280;12954;50.688;10.908;2022-07-29T07:09:06;95634.84;;;17.99;38.61
24892;BME280;12954;50.688;10.908;2022-07-29T07:11:35;95632.41;;;18.06;38.29
24892;BME280;12954;50.688;10.908;2022-07-29T07:14:03;95641.25;;;18.11;38.28
24892;BME280;12954;50.688;10.908;2022-07-29T07:16:32;95628.06;;;18.22;38.31
24892;BME280;12954;50.688;10.908;2022-07-29T07:19:01;95639.25;;;18.29;38.26
24892;BME280;12954;50.688;10.908;2022-07-29T07:21:29;95636.63;;;18.41;37.94
24892;BME280;12954;50.688;10.908;2022-07-29T07:23:59;95636.09;;;18.56;37.55
24892;BME280;12954;50.688;10.908;2022-07-29T07:26:28;95635.72;;;18.66;37.32
24892;BME280;12954;50.688;10.908;2022-07-29T07:28:57;95646.47;;;18.71;37.14
24892;BME280;12954;50.688;10.908;2022-07-29T07:31:27;95644.81;;;18.79;37.19
24892;BME280;12954;50.688;10.908;2022-07-29T07:33:56;95572.28;;;18.52;37.27
24892;BME280;12954;50.688;10.908;2022-07-29T07:36:25;95633.78;;;18.96;36.93
24892;BME280;12954;50.688;10.908;2022-07-29T07:38:54;95633.47;;;18.98;37.01
24892;BME280;12954;50.688;10.908;2022-07-29T07:41:24;95637.59;;;19.04;36.79
24892;BME280;12954;50.688;10.908;2022-07-29T07:43:58;95638.06;;;19.06;36.80
24892;BME280;12954;50.688;10.908;2022-07-29T07:46:27;95608.09;;;18.88;36.61
24892;BME280;12954;50.688;10.908;2022-07-29T07:48:55;95634.22;;;19.07;36.65
24892;BME280;12954;50.688;10.908;2022-07-29T07:51:24;95613.38;;;18.94;36.78
24892;BME280;12954;50.688;10.908;2022-07-29T07:53:52;95597.03;;;18.85;37.01
24892;BME280;12954;50.688;10.908;2022-07-29T07:56:24;95627.13;;;19.06;36.95
24892;BME280;12954;50.688;10.908;2022-07-29T07:59:00;95630.31;;;19.08;37.08
24892;BME280;12954;50.688;10.908;2022-07-29T08:01:29;95633.53;;;19.10;37.02
24892;BME280;12954;50.688;10.908;2022-07-29T08:04:17;95634.81;;;19.12;36.82
24892;BME280;12954;50.688;10.908;2022-07-29T08:06:53;95631.06;;;19.17;36.80
24892;BME280;12954;50.688;10.908;2022-07-29T08:09:22;95636.34;;;19.22;36.71
24892;BME280;12954;50.688;10.908;2022-07-29T08:11:59;95616.47;;;19.13;36.51
24892;BME280;12954;50.688;10.908;2022-07-29T08:14:29;95630.47;;;19.32;36.81
24892;BME280;12954;50.688;10.908;2022-07-29T08:16:59;95626.09;;;19.39;36.45
24892;BME280;12954;50.688;10.908;2022-07-29T08:19:28;95623.28;;;19.48;36.63
24892;BME280;12954;50.688;10.908;2022-07-29T08:21:56;95625.13;;;19.56;36.49
24892;BME280;12954;50.688;10.908;2022-07-29T08:24:25;95619.91;;;19.63;36.31
24892;BME280;12954;50.688;10.908;2022-07-29T08:27:22;95627.34;;;19.63;36.45
24892;BME280;12954;50.688;10.908;2022-07-29T08:30:09;95628.34;;;19.58;36.45
24892;BME280;12954;50.688;10.908;2022-07-29T08:32:39;95637.47;;;19.62;36.44
24892;BME280;12954;50.688;10.908;2022-07-29T08:35:19;95629.72;;;19.64;36.34
24892;BME280;12954;50.688;10.908;2022-07-29T08:37:48;95625.31;;;19.72;36.26
24892;BME280;12954;50.688;10.908;2022-07-29T08:40:17;95626.22;;;19.76;36.33
24892;BME280;12954;50.688;10.908;2022-07-29T08:42:59;95595.50;;;19.58;36.37
24892;BME280;12954;50.688;10.908;2022-07-29T08:45:41;95633.47;;;19.92;36.24
24892;BME280;12954;50.688;10.908;2022-07-29T08:48:14;95635.06;;;19.93;36.37
24892;BME280;12954;50.688;10.908;2022-07-29T08:50:45;95640.13;;;20.04;36.17
24892;BME280;12954;50.688;10.908;2022-07-29T08:53:16;95637.34;;;20.12;36.13
24892;BME280;12954;50.688;10.908;2022-07-29T08:55:47;95632.88;;;20.20;36.13
24892;BME280;12954;50.688;10.908;2022-07-29T08:58:18;95629.22;;;20.28;36.16
24892;BME280;12954;50.688;10.908;2022-07-29T09:00:53;95620.81;;;20.33;36.12
24892;BME280;12954;50.688;10.908;2022-07-29T09:03:25;95624.47;;;20.49;35.73
24892;BME280;12954;50.688;10.908;2022-07-29T09:05:54;95617.50;;;20.51;35.69
24892;BME280;12954;50.688;10.908;2022-07-29T09:08:23;95621.59;;;20.58;35.66
24892;BME280;12954;50.688;10.908;2022-07-29T09:10:51;95612.81;;;20.64;35.68
24892;BME280;12954;50.688;10.908;2022-07-29T09:13:24;95618.31;;;20.76;35.58
24892;BME280;12954;50.688;10.908;2022-07-29T09:15:53;95609.19;;;20.84;35.56
24892;BME280;12954;50.688;10.908;2022-07-29T09:18:42;95610.97;;;20.92;35.37
24892;BME280;12954;50.688;10.908;2022-07-29T09:21:13;95607.41;;;21.04;35.11
24892;BME280;12954;50.688;10.908;2022-07-29T09:24:03;95612.22;;;21.07;34.91
24892;BME280;12954;50.688;10.908;2022-07-29T09:26:35;95616.09;;;21.18;34.72
24892;BME280;12954;50.688;10.908;2022-07-29T09:29:10;95599.13;;;21.28;34.36
24892;BME280;12954;50.688;10.908;2022-07-29T09:31:41;95603.13;;;21.31;34.38
24892;BME280;12954;50.688;10.908;2022-07-29T09:34:12;95607.22;;;21.37;34.34
24892;BME280;12954;50.688;10.908;2022-07-29T09:36:42;95609.06;;;21.45;34.30
24892;BME280;12954;50.688;10.908;2022-07-29T09:39:12;95608.94;;;21.53;34.18
24892;BME280;12954;50.688;10.908;2022-07-29T09:41:48;95611.06;;;21.60;34.43
24892;BME280;12954;50.688;10.908;2022-07-29T09:44:19;95606.84;;;21.63;34.45
24892;BME280;12954;50.688;10.908;2022-07-29T09:46:55;95597.97;;;21.69;34.51
24892;BME280;12954;50.688;10.908;2022-07-29T09:49:25;95600.94;;;21.76;34.45
24892;BME280;12954;50.688;10.908;2022-07-29T09:52:05;95601.69;;;21.89;34.51
24892;BME280;12954;50.688;10.908;2022-07-29T09:54:35;95545.81;;;21.69;34.58
24892;BME280;12954;50.688;10.908;2022-07-29T09:57:08;95598.00;;;22.12;34.50
24892;BME280;12954;50.688;10.908;2022-07-29T09:59:56;95590.56;;;22.29;34.61
24892;BME280;12954;50.688;10.908;2022-07-29T10:02:29;95582.25;;;22.41;34.92
24892;BME280;12954;50.688;10.908;2022-07-29T10:04:59;95565.75;;;22.41;34.81
24892;BME280;12954;50.688;10.908;2022-07-29T10:07:43;95578.13;;;22.66;34.49
24892;BME280;12954;50.688;10.908;2022-07-29T10:10:21;95575.25;;;22.78;34.62
24892;BME280;12954;50.688;10.908;2022-07-29T10:12:52;95578.66;;;22.87;34.03
24892;BME280;12954;50.688;10.908;2022-07-29T10:15:24;95576.88;;;22.95;33.71
24892;BME280;12954;50.688;10.908;2022-07-29T10:17:54;95584.84;;;23.00;33.29
24892;BME280;12954;50.688;10.908;2022-07-29T10:20:23;95581.91;;;22.93;33.41
24892;BME280;12954;50.688;10.908;2022-07-29T10:22:53;95585.91;;;22.95;33.37
24892;BME280;12954;50.688;10.908;2022-07-29T10:25:23;95570.41;;;22.87;33.20
24892;BME280;12954;50.688;10.908;2022-07-29T10:27:53;95587.34;;;22.89;33.24
24892;BME280;12954;50.688;10.908;2022-07-29T10:30:25;95576.31;;;22.89;33.39
24892;BME280;12954;50.688;10.908;2022-07-29T10:33:13;95576.06;;;22.94;33.12
24892;BME280;12954;50.688;10.908;2022-07-29T10:35:53;95569.44;;;22.80;33.31
24892;BME280;12954;50.688;10.908;2022-07-29T10:38:44;95573.66;;;22.93;33.09
24892;BME280;12954;50.688;10.908;2022-07-29T10:44:14;95578.81;;;22.94;33.02
24892;BME280;12954;50.688;10.908;2022-07-29T10:46:46;95572.34;;;22.87;33.14
24892;BME280;12954;50.688;10.908;2022-07-29T10:49:16;95551.84;;;22.68;33.34
24892;BME280;12954;50.688;10.908;2022-07-29T10:51:57;95569.63;;;22.71;33.53
24892;BME280;12954;50.688;10.908;2022-07-29T10:54:43;95572.09;;;22.76;33.96
24892;BME280;12954;50.688;10.908;2022-07-29T10:57:19;95585.75;;;22.72;34.13
24892;BME280;12954;50.688;10.908;2022-07-29T11:00:27;95591.34;;;22.60;34.33
24892;BME280;12954;50.688;10.908;2022-07-29T11:02:57;95591.81;;;22.62;34.59
24892;BME280;12954;50.688;10.908;2022-07-29T11:05:53;95594.63;;;22.66;35.39
24892;BME280;12954;50.688;10.908;2022-07-29T11:08:25;95598.19;;;22.51;36.56
24892;BME280;12954;50.688;10.908;2022-07-29T11:14:17;95604.00;;;22.02;39.46
24892;BME280;12954;50.688;10.908;2022-07-29T11:17:03;95615.41;;;21.89;41.74
24892;BME280;12954;50.688;10.908;2022-07-29T11:19:36;95619.03;;;21.77;42.07
24892;BME280;12954;50.688;10.908;2022-07-29T11:22:32;95625.81;;;21.68;44.02
24892;BME280;12954;50.688;10.908;2022-07-29T11:25:17;95623.41;;;21.66;45.01
24892;BME280;12954;50.688;10.908;2022-07-29T11:28:12;95615.63;;;21.68;45.26
24892;BME280;12954;50.688;10.908;2022-07-29T11:30:52;95608.03;;;21.77;46.00
24892;BME280;12954;50.688;10.908;2022-07-29T11:33:27;95605.47;;;21.84;46.17
24892;BME280;12954;50.688;10.908;2022-07-29T11:36:17;95597.44;;;21.91;46.32
24892;BME280;12954;50.688;10.908;2022-07-29T11:39:25;95592.81;;;21.95;47.41
24892;BME280;12954;50.688;10.908;2022-07-29T11:45:20;95599.00;;;21.92;47.63
24892;BME280;12954;50.688;10.908;2022-07-29T11:48:15;95592.91;;;21.99;48.04
24892;BME280;12954;50.688;10.908;2022-07-29T11:50:57;95593.00;;;22.02;47.73
24892;BME280;12954;50.688;10.908;2022-07-29T11:53:28;95569.66;;;21.81;47.01
24892;BME280;12954;50.688;10.908;2022-07-29T11:55:59;95583.63;;;22.03;47.25
24892;BME280;12954;50.688;10.908;2022-07-29T11:58:29;95584.75;;;22.02;47.45
24892;BME280;12954;50.688;10.908;2022-07-29T12:00:59;95583.53;;;22.00;47.77
24892;BME280;12954;50.688;10.908;2022-07-29T12:03:31;95534.81;;;21.69;47.69
24892;BME280;12954;50.688;10.908;2022-07-29T12:06:03;95567.09;;;21.88;48.12
24892;BME280;12954;50.688;10.908;2022-07-29T12:09:07;95567.13;;;22.03;48.51
24892;BME280;12954;50.688;10.908;2022-07-29T12:11:40;95568.22;;;22.14;48.30
24892;BME280;12954;50.688;10.908;2022-07-29T12:14:25;95560.44;;;22.32;45.75
24892;BME280;12954;50.688;10.908;2022-07-29T12:16:54;95557.94;;;22.43;46.39
24892;BME280;12954;50.688;10.908;2022-07-29T12:19:24;95553.47;;;22.54;46.18
24892;BME280;12954;50.688;10.908;2022-07-29T12:21:53;95549.66;;;22.74;44.71
24892;BME280;12954;50.688;10.908;2022-07-29T12:24:42;95556.00;;;22.94;44.16
24892;BME280;12954;50.688;10.908;2022-07-29T12:27:11;95560.16;;;23.03;44.13
24892;BME280;12954;50.688;10.908;2022-07-29T12:29:56;95550.41;;;22.90;43.71
24892;BME280;12954;50.688;10.908;2022-07-29T12:32:31;95546.53;;;22.91;43.61
24892;BME280;12954;50.688;10.908;2022-07-29T12:35:03;95555.38;;;23.00;42.88
24892;BME280;12954;50.688;10.908;2022-07-29T12:37:33;95533.03;;;22.86;42.96
24892;BME280;12954;50.688;10.908;2022-07-29T12:40:11;95561.72;;;23.04;42.44
24892;BME280;12954;50.688;10.908;2022-07-29T12:42:40;95550.16;;;23.14;41.52
24892;BME280;12954;50.688;10.908;2022-07-29T12:45:09;95558.22;;;23.23;40.65
24892;BME280;12954;50.688;10.908;2022-07-29T12:47:51;95556.75;;;23.29;40.40
24892;BME280;12954;50.688;10.908;2022-07-29T12:50:20;95553.06;;;23.41;40.32
24892;BME280;12954;50.688;10.908;2022-07-29T12:52:52;95549.03;;;23.54;40.05
24892;BME280;12954;50.688;10.908;2022-07-29T12:55:39;95549.00;;;23.73;39.67
24892;BME280;12954;50.688;10.908;2022-07-29T12:58:09;95557.97;;;23.89;39.25
24892;BME280;12954;50.688;10.908;2022-07-29T13:00:38;95549.75;;;24.12;38.61
24892;BME280;12954;50.688;10.908;2022-07-29T13:03:06;95546.97;;;24.34;37.31
24892;BME280;12954;50.688;10.908;2022-07-29T13:05:41;95542.91;;;24.51;36.05
24892;BME280;12954;50.688;10.908;2022-07-29T13:08:16;95533.09;;;24.54;35.83
24892;BME280;12954;50.688;10.908;2022-07-29T13:10:49;95537.03;;;24.53;35.94
24892;BME280;12954;50.688;10.908;2022-07-29T13:13:17;95541.91;;;24.63;36.02
24892;BME280;12954;50.688;10.908;2022-07-29T13:15:46;95533.56;;;24.82;35.70
24892;BME280;12954;50.688;10.908;2022-07-29T13:18:34;95506.66;;;24.75;34.01
24892;BME280;12954;50.688;10.908;2022-07-29T13:21:11;95518.59;;;24.83;34.11
24892;BME280;12954;50.688;10.908;2022-07-29T13:23:41;95490.69;;;24.62;34.61
24892;BME280;12954;50.688;10.908;2022-07-29T13:26:11;95525.06;;;24.94;34.72
24892;BME280;12954;50.688;10.908;2022-07-29T13:28:40;95457.13;;;24.60;34.64
24892;BME280;12954;50.688;10.908;2022-07-29T13:31:10;95482.91;;;24.97;34.07